createdAt,value
2017-08-29T00:03:38.076Z,97330.79
2017-08-29T00:08:24.709Z,97345.20
2017-08-29T00:13:11.686Z,97345.41
2017-08-29T00:17:58.353Z,97345.13
2017-08-29T00:22:44.977Z,97352.80
2017-08-29T00:27:32.040Z,97351.92
2017-08-29T00:32:18.661Z,97344.75
2017-08-29T00:37:05.500Z,97344.32
2017-08-29T00:41:52.432Z,97340.11
2017-08-29T00:46:39.195Z,97333.50
2017-08-29T00:51:25.820Z,97330.37
2017-08-29T00:56:12.664Z,97327.42
2017-08-29T01:00:59.396Z,97312.92
2017-08-29T01:05:46.104Z,97308.25
2017-08-29T01:10:32.801Z,97314.02
2017-08-29T01:15:19.606Z,97310.46
2017-08-29T01:20:06.275Z,97314.07
2017-08-29T01:24:52.900Z,97313.30
2017-08-29T01:29:39.520Z,97303.28
2017-08-29T01:34:26.571Z,97303.16
2017-08-29T01:39:13.168Z,97297.95
2017-08-29T01:43:59.794Z,97284.88
2017-08-29T01:48:46.531Z,97286.44
2017-08-29T01:53:33.151Z,97294.06
2017-08-29T01:58:19.796Z,97295.01
2017-08-29T02:03:06.457Z,97294.94
2017-08-29T02:07:53.107Z,97298.27
2017-08-29T02:12:39.741Z,97295.76
2017-08-29T02:17:26.405Z,97295.06
2017-08-29T02:22:13.037Z,97291.74
2017-08-29T02:26:59.989Z,97296.67
2017-08-29T02:31:46.618Z,97293.61
2017-08-29T02:36:33.238Z,97296.33
2017-08-29T02:41:20.191Z,97294.33
2017-08-29T02:46:06.810Z,97289.05
2017-08-29T02:50:53.521Z,97278.34
2017-08-29T02:55:40.234Z,97276.51
2017-08-29T03:00:26.938Z,97279.11
2017-08-29T03:05:13.572Z,97279.71
2017-08-29T03:10:00.246Z,97281.05
2017-08-29T03:14:47.240Z,97270.02
2017-08-29T03:19:33.882Z,97262.66
2017-08-29T03:24:20.520Z,97260.53
2017-08-29T03:29:07.151Z,97260.03
2017-08-29T03:33:53.920Z,97260.88
2017-08-29T03:38:40.685Z,97269.31
2017-08-29T03:43:27.671Z,97260.36
2017-08-29T03:48:14.295Z,97267.83
2017-08-29T03:53:00.948Z,97266.47
2017-08-29T03:57:47.609Z,97282.14
2017-08-29T04:02:34.217Z,97285.55
2017-08-29T04:07:20.850Z,97283.38
2017-08-29T04:12:07.511Z,97287.36
2017-08-29T04:16:54.134Z,97276.79
2017-08-29T04:21:40.757Z,97276.73
2017-08-29T04:26:27.619Z,97279.63
2017-08-29T04:31:14.394Z,97286.33
2017-08-29T04:36:01.001Z,97294.47
2017-08-29T04:40:47.594Z,97304.26
2017-08-29T04:45:34.205Z,97293.48
2017-08-29T04:50:20.832Z,97291.37
2017-08-29T04:55:07.474Z,97295.33
2017-08-29T05:00:01.500Z,97296.17
2017-08-29T05:04:48.111Z,97304.06
2017-08-29T05:09:34.750Z,97304.39
2017-08-29T05:14:21.398Z,97310.63
2017-08-29T05:19:08.074Z,97309.20
2017-08-29T05:23:54.713Z,97305.91
2017-08-29T05:28:41.710Z,97311.53
2017-08-29T05:33:28.324Z,97299.84
2017-08-29T05:38:14.944Z,97304.88
2017-08-29T05:43:01.572Z,97315.82
2017-08-29T05:47:48.240Z,97314.06
2017-08-29T05:52:35.230Z,97314.45
2017-08-29T05:57:21.842Z,97311.28
2017-08-29T06:02:08.590Z,97310.44
2017-08-29T06:06:55.218Z,97314.76
2017-08-29T06:11:41.856Z,97310.16
2017-08-29T06:16:28.788Z,97303.47
2017-08-29T06:21:15.461Z,97307.36
2017-08-29T06:26:02.272Z,97305.72
2017-08-29T06:30:49.178Z,97295.34
2017-08-29T06:35:35.825Z,97294.48
2017-08-29T06:40:22.490Z,97287.81
2017-08-29T06:45:09.558Z,97289.73
2017-08-29T06:49:56.184Z,97295.72
2017-08-29T06:54:42.851Z,97289.36
2017-08-29T06:59:30.130Z,97285.83
2017-08-29T07:04:16.751Z,97278.28
2017-08-29T07:09:03.659Z,97284.64
2017-08-29T07:13:50.295Z,97288.55
2017-08-29T07:18:36.962Z,97295.90
2017-08-29T07:23:23.569Z,97295.78
2017-08-29T07:28:10.164Z,97297.60
2017-08-29T07:32:57.295Z,97292.02
2017-08-29T07:37:43.921Z,97292.36
2017-08-29T07:42:30.634Z,97296.50
2017-08-29T07:47:17.278Z,97307.66
2017-08-29T07:52:04.131Z,97315.12
2017-08-29T07:56:51.214Z,97307.77
2017-08-29T08:01:37.869Z,97310.44
2017-08-29T08:06:24.487Z,97311.73
2017-08-29T08:11:11.135Z,97312.33
2017-08-29T08:15:57.909Z,97314.95
2017-08-29T08:20:44.601Z,97309.44
2017-08-29T08:25:31.589Z,97303.84
2017-08-29T08:30:18.227Z,97307.23
2017-08-29T08:35:05.291Z,97306.05
2017-08-29T08:39:51.925Z,97309.55
2017-08-29T08:44:38.565Z,97307.42
2017-08-29T08:49:25.259Z,97309.00
2017-08-29T08:54:11.988Z,97310.82
2017-08-29T08:58:58.678Z,97316.19
2017-08-29T09:03:45.650Z,97318.50
2017-08-29T09:08:32.322Z,97307.86
2017-08-29T09:13:19.212Z,97306.36
2017-08-29T09:18:05.834Z,97294.20
2017-08-29T09:22:52.475Z,97292.72
2017-08-29T09:27:39.546Z,97287.09
2017-08-29T09:32:26.245Z,97281.09
2017-08-29T09:37:12.991Z,97271.30
2017-08-29T09:41:59.623Z,97278.63
2017-08-29T09:46:46.245Z,97265.97
2017-08-29T09:51:32.901Z,97265.37
2017-08-29T09:56:19.879Z,97253.86
2017-08-29T10:01:07.012Z,97256.59
2017-08-29T10:05:53.649Z,97249.50
2017-08-29T10:10:40.344Z,97251.16
2017-08-29T10:15:26.980Z,97246.28
2017-08-29T10:20:13.695Z,97239.52
2017-08-29T10:25:00.831Z,97233.08
2017-08-29T10:29:47.433Z,97231.70
2017-08-29T10:34:34.229Z,97236.58
2017-08-29T10:39:20.845Z,97221.45
2017-08-29T10:44:07.799Z,97227.42
2017-08-29T10:48:54.469Z,97233.35
2017-08-29T10:53:42.045Z,97230.22
2017-08-29T10:58:28.730Z,97223.16
2017-08-29T11:03:15.391Z,97221.23
2017-08-29T11:08:02.067Z,97202.55
2017-08-29T11:12:48.718Z,97206.66
2017-08-29T11:17:35.450Z,97200.02
2017-08-29T11:22:22.139Z,97197.73
2017-08-29T11:27:08.757Z,97192.22
2017-08-29T11:31:55.375Z,97186.81
2017-08-29T11:36:42.005Z,97193.17
2017-08-29T11:41:29.101Z,97182.41
2017-08-29T11:46:15.785Z,97181.95
2017-08-29T11:51:02.442Z,97182.14
2017-08-29T11:55:49.077Z,97185.91
2017-08-29T12:00:35.712Z,97184.28
2017-08-29T12:05:22.364Z,97184.16
2017-08-29T12:10:09.434Z,97182.14
2017-08-29T12:14:56.065Z,97180.06
2017-08-29T12:19:42.771Z,97171.55
2017-08-29T12:24:29.605Z,97171.86
2017-08-29T12:29:16.272Z,97167.41
2017-08-29T12:34:03.278Z,97164.73
2017-08-29T12:38:49.912Z,97160.23
2017-08-29T12:43:36.561Z,97154.39
2017-08-29T12:48:23.226Z,97144.55
2017-08-29T12:53:10.650Z,97141.19
2017-08-29T12:57:57.372Z,97129.23
2017-08-29T13:02:44.007Z,97132.54
2017-08-29T13:07:30.719Z,97128.66
2017-08-29T13:12:17.650Z,97115.62
2017-08-29T13:17:04.276Z,97105.61
2017-08-29T13:21:51.302Z,97104.69
2017-08-29T13:26:38.001Z,97095.84
2017-08-29T13:31:24.738Z,97087.92
2017-08-29T13:36:11.537Z,97092.52
2017-08-29T13:40:58.293Z,97088.79
2017-08-29T13:45:45.202Z,97093.15
2017-08-29T13:50:31.802Z,97086.27
2017-08-29T13:55:18.551Z,97084.39
2017-08-29T14:00:05.187Z,97077.85
2017-08-29T14:04:51.811Z,97066.42
2017-08-29T14:09:38.766Z,97065.54
2017-08-29T14:14:25.379Z,97062.36
2017-08-29T14:19:11.996Z,97054.23
2017-08-29T14:23:58.829Z,97046.58
2017-08-29T14:28:45.491Z,97047.36
2017-08-29T14:33:32.549Z,97043.13
2017-08-29T14:38:19.581Z,97030.03
2017-08-29T14:43:06.252Z,97024.47
2017-08-29T14:48:11.349Z,97027.36
2017-08-29T14:52:58.041Z,97026.98
2017-08-29T14:57:44.784Z,97020.78
2017-08-29T15:02:31.513Z,97026.34
2017-08-29T15:07:18.555Z,97021.95
2017-08-29T15:12:05.215Z,97028.08
2017-08-29T15:16:51.847Z,97028.48
2017-08-29T15:21:38.534Z,97020.37
2017-08-29T15:26:25.203Z,97018.22
2017-08-29T15:31:12.047Z,97012.04
2017-08-29T15:35:58.989Z,97004.84
2017-08-29T15:40:45.602Z,97002.97
2017-08-29T15:45:32.286Z,97005.37
2017-08-29T15:50:18.942Z,96999.88
2017-08-29T15:55:05.872Z,96997.23
2017-08-29T15:59:52.514Z,96992.64
2017-08-29T16:04:39.169Z,96993.87
2017-08-29T16:09:25.781Z,96988.80
2017-08-29T16:14:12.365Z,96984.70
2017-08-29T16:18:58.993Z,96981.31
2017-08-29T16:23:46.005Z,96979.31
2017-08-29T16:28:32.624Z,96974.02
2017-08-29T16:33:19.373Z,96976.05
2017-08-29T16:38:06.165Z,96982.16
2017-08-29T16:42:52.872Z,96978.04
2017-08-29T16:47:39.578Z,96979.12
2017-08-29T16:52:26.274Z,96970.09
2017-08-29T16:57:13.261Z,96971.77
2017-08-29T17:01:59.885Z,96931.23
2017-08-29T17:06:46.573Z,96971.89
2017-08-29T17:11:33.621Z,96977.34
2017-08-29T17:16:20.234Z,96976.20
2017-08-29T17:21:06.874Z,96970.80
2017-08-29T17:25:53.518Z,96970.73
2017-08-29T17:30:40.907Z,96969.33
2017-08-29T17:35:27.528Z,96967.91
2017-08-29T17:40:14.433Z,96972.84
2017-08-29T17:45:01.046Z,96972.58
2017-08-29T17:49:47.911Z,96974.03
2017-08-29T17:54:34.635Z,96980.91
2017-08-29T17:59:21.271Z,96979.56
2017-08-29T18:04:08.083Z,96987.71
2017-08-29T18:08:55.230Z,96982.09
2017-08-29T18:13:41.918Z,96988.59
2017-08-29T18:18:28.682Z,96986.36
2017-08-29T18:23:15.479Z,96979.72
2017-08-29T18:28:02.306Z,96985.69
2017-08-29T18:32:49.128Z,96992.54
2017-08-29T18:37:36.184Z,96995.85
2017-08-29T18:42:22.865Z,96998.55
2017-08-29T18:47:09.708Z,96993.96
2017-08-29T18:51:56.497Z,96997.81
2017-08-29T18:56:43.264Z,96993.95
2017-08-29T19:01:30.333Z,96990.29
2017-08-29T19:06:17.078Z,96990.48
2017-08-29T19:11:03.883Z,96996.53
2017-08-29T19:15:51.028Z,96992.14
2017-08-29T19:20:38.155Z,96995.81
2017-08-29T19:25:24.987Z,97006.49
2017-08-29T19:30:11.742Z,97004.72
2017-08-29T19:34:58.574Z,97002.73
2017-08-29T19:39:45.650Z,97018.42
2017-08-29T19:44:32.357Z,97019.09
2017-08-29T19:49:19.057Z,97013.56
2017-08-29T19:54:05.814Z,97014.40
2017-08-29T19:58:52.534Z,97012.35
2017-08-29T20:03:39.266Z,97009.92
2017-08-29T20:08:26.371Z,97013.52
2017-08-29T20:13:13.162Z,97014.54
2017-08-29T20:17:59.943Z,97013.15
2017-08-29T20:22:46.788Z,97018.16
2017-08-29T20:27:33.540Z,97014.54
2017-08-29T20:32:20.237Z,97023.05
2017-08-29T20:37:07.037Z,97021.67
2017-08-29T20:41:54.346Z,97029.83
2017-08-29T20:46:41.035Z,97022.86
2017-08-29T20:51:27.821Z,97026.56
2017-08-29T20:56:14.543Z,97031.65
2017-08-29T21:01:01.374Z,97024.06
2017-08-29T21:05:48.076Z,97028.97
2017-08-29T21:10:34.794Z,97025.44
2017-08-29T21:15:21.806Z,97025.28
2017-08-29T21:20:08.462Z,97026.19
2017-08-29T21:24:55.109Z,97025.87
2017-08-29T21:29:41.846Z,97019.44
2017-08-29T21:34:28.843Z,97023.25
2017-08-29T21:39:15.498Z,97022.77
2017-08-29T21:44:02.524Z,97024.34
2017-08-29T21:48:49.177Z,97024.73
2017-08-29T21:53:35.873Z,97022.09
2017-08-29T21:58:22.680Z,97017.12
2017-08-29T22:03:09.331Z,97017.77
2017-08-29T22:07:56.345Z,97022.07
2017-08-29T22:12:42.961Z,97035.72
2017-08-29T22:17:29.732Z,97025.05
2017-08-29T22:22:17.372Z,97031.53
2017-08-29T22:27:04.025Z,97025.95
2017-08-29T22:31:57.837Z,97026.07
2017-08-29T22:36:44.505Z,97029.97
2017-08-29T22:41:31.497Z,97034.16
2017-08-29T22:46:18.114Z,97039.03
2017-08-29T22:51:04.781Z,97045.59
2017-08-29T22:55:51.420Z,97046.95
2017-08-29T23:00:38.380Z,97042.77
2017-08-29T23:05:24.991Z,97046.63
2017-08-29T23:10:11.765Z,97042.20
2017-08-29T23:14:59.123Z,97043.50
2017-08-29T23:19:45.765Z,97044.60
2017-08-29T23:24:32.361Z,97045.45
2017-08-29T23:29:19.359Z,97045.89
2017-08-29T23:34:06.111Z,97037.38
2017-08-29T23:38:52.717Z,97035.30
2017-08-29T23:43:39.320Z,97024.67
2017-08-29T23:48:25.932Z,97026.13
2017-08-29T23:53:12.564Z,97029.23
2017-08-29T23:57:59.184Z,97031.70
